createdAt,value
2018-09-08T00:01:35.723Z,86.08
2018-09-08T00:04:03.880Z,85.86
2018-09-08T00:06:32.943Z,84.54
2018-09-08T00:09:01.528Z,85.47
2018-09-08T00:11:29.655Z,85.30
2018-09-08T00:13:57.775Z,85.14
2018-09-08T00:16:31.182Z,85.22
2018-09-08T00:19:04.506Z,85.86
2018-09-08T00:21:37.919Z,86.02
2018-09-08T00:24:11.528Z,87.09
2018-09-08T00:26:39.415Z,87.39
2018-09-08T00:29:12.916Z,88.26
2018-09-08T00:31:41.007Z,88.68
2018-09-08T00:34:09.116Z,88.42
2018-09-08T00:36:42.204Z,88.21
2018-09-08T00:39:11.391Z,88.41
2018-09-08T00:41:39.511Z,88.83
2018-09-08T00:44:07.616Z,89.34
2018-09-08T00:46:35.766Z,89.78
2018-09-08T00:49:04.688Z,90.37
2018-09-08T00:51:33.328Z,90.36
2018-09-08T00:54:01.631Z,90.14
2018-09-08T00:56:30.203Z,89.73
2018-09-08T00:59:05.395Z,89.47
2018-09-08T01:01:40.011Z,89.34
2018-09-08T01:04:08.130Z,90.39
2018-09-08T01:06:36.404Z,89.81
2018-09-08T01:09:06.633Z,88.74
2018-09-08T01:11:34.722Z,89.31
2018-09-08T01:14:02.992Z,90.35
2018-09-08T01:16:31.119Z,90.96
2018-09-08T01:18:59.215Z,90.23
2018-09-08T01:21:27.343Z,90.04
2018-09-08T01:23:55.445Z,90.25
2018-09-08T01:26:24.427Z,90.03
2018-09-08T01:28:52.590Z,90.55
2018-09-08T01:31:21.228Z,91.99
2018-09-08T01:33:49.339Z,92.02
2018-09-08T01:36:18.020Z,92.32
2018-09-08T01:38:46.121Z,92.66
2018-09-08T01:41:14.228Z,93.19
2018-09-08T01:43:42.923Z,93.75
2018-09-08T01:46:10.997Z,93.36
2018-09-08T01:48:39.125Z,93.80
2018-09-08T01:51:07.440Z,93.95
2018-09-08T01:53:35.551Z,93.72
2018-09-08T01:56:03.931Z,95.20
2018-09-08T01:58:32.833Z,95.21
2018-09-08T02:01:02.284Z,96.84
2018-09-08T02:03:30.397Z,97.42
2018-09-08T02:05:58.500Z,97.31
2018-09-08T02:08:26.800Z,97.76
2018-09-08T02:10:55.496Z,99.41
2018-09-08T02:13:24.596Z,99.90
2018-09-08T02:15:52.829Z,100.00
2018-09-08T02:18:21.067Z,100.00
2018-09-08T02:20:49.261Z,100.00
2018-09-08T02:23:17.646Z,100.00
2018-09-08T02:25:47.754Z,100.00
2018-09-08T02:28:15.851Z,100.00
2018-09-08T02:30:43.935Z,100.00
2018-09-08T02:33:12.552Z,99.64
2018-09-08T02:35:40.748Z,99.17
2018-09-08T02:38:10.403Z,99.19
2018-09-08T02:40:38.632Z,99.18
2018-09-08T02:43:06.718Z,99.06
2018-09-08T02:45:34.801Z,99.10
2018-09-08T02:48:03.475Z,99.17
2018-09-08T02:50:34.102Z,99.19
2018-09-08T02:53:01.707Z,99.64
2018-09-08T02:55:29.217Z,99.70
2018-09-08T02:57:56.854Z,99.88
2018-09-08T03:00:24.135Z,100.00
2018-09-08T03:02:51.484Z,100.00
2018-09-08T03:05:19.157Z,100.00
2018-09-08T03:07:47.760Z,100.00
2018-09-08T03:10:15.681Z,99.45
2018-09-08T03:12:42.803Z,98.89
2018-09-08T03:15:09.883Z,99.04
2018-09-08T03:17:37.004Z,99.18
2018-09-08T03:20:04.187Z,99.19
2018-09-08T03:22:31.651Z,99.00
2018-09-08T03:24:58.874Z,98.60
2018-09-08T03:27:25.959Z,98.77
2018-09-08T03:29:53.105Z,99.23
2018-09-08T03:32:20.202Z,98.69
2018-09-08T03:34:48.132Z,98.80
2018-09-08T03:37:15.650Z,98.85
2018-09-08T03:39:42.727Z,99.60
2018-09-08T03:42:10.030Z,99.91
2018-09-08T03:44:37.132Z,99.69
2018-09-08T03:47:04.234Z,99.20
2018-09-08T03:49:31.328Z,99.58
2018-09-08T03:51:58.425Z,99.56
2018-09-08T03:54:25.526Z,99.54
2018-09-08T03:56:52.795Z,99.91
2018-09-08T03:59:19.876Z,100.00
2018-09-08T04:01:47.576Z,100.00
2018-09-08T04:04:15.679Z,100.00
2018-09-08T04:06:44.408Z,100.00
2018-09-08T04:09:12.639Z,100.00
2018-09-08T04:11:40.820Z,100.00
2018-09-08T04:14:09.422Z,100.00
2018-09-08T04:16:37.561Z,100.00
2018-09-08T04:19:06.366Z,100.00
2018-09-08T04:21:34.526Z,100.00
2018-09-08T04:24:02.702Z,100.00
2018-09-08T04:26:30.833Z,100.00
2018-09-08T04:28:59.327Z,100.00
2018-09-08T04:31:27.484Z,100.00
2018-09-08T04:33:56.296Z,100.00
2018-09-08T04:36:24.441Z,100.00
2018-09-08T04:38:52.587Z,100.00
2018-09-08T04:41:22.339Z,100.00
2018-09-08T04:43:50.440Z,100.00
2018-09-08T04:46:18.541Z,100.00
2018-09-08T04:48:47.126Z,100.00
2018-09-08T04:51:15.199Z,100.00
2018-09-08T04:53:44.043Z,100.00
2018-09-08T04:56:12.116Z,100.00
2018-09-08T04:58:40.221Z,100.00
2018-09-08T05:01:08.336Z,100.00
2018-09-08T05:03:36.435Z,100.00
2018-09-08T05:06:04.611Z,100.00
2018-09-08T05:08:32.718Z,100.00
2018-09-08T05:11:00.835Z,100.00
2018-09-08T05:13:28.931Z,100.00
2018-09-08T05:15:57.033Z,100.00
2018-09-08T05:18:25.123Z,100.00
2018-09-08T05:20:53.196Z,100.00
2018-09-08T05:23:21.338Z,100.00
2018-09-08T05:25:49.424Z,100.00
2018-09-08T05:28:18.327Z,100.00
2018-09-08T05:30:46.698Z,100.00
2018-09-08T05:33:15.091Z,100.00
2018-09-08T05:35:43.208Z,100.00
2018-09-08T05:38:11.645Z,100.00
2018-09-08T05:40:39.801Z,100.00
2018-09-08T05:43:07.908Z,100.00
2018-09-08T05:45:36.027Z,100.00
2018-09-08T05:48:04.223Z,99.89
2018-09-08T05:50:32.295Z,99.37
2018-09-08T05:53:00.384Z,99.03
2018-09-08T05:55:28.440Z,98.91
2018-09-08T05:57:56.523Z,98.90
2018-09-08T06:00:24.616Z,99.56
2018-09-08T06:02:52.712Z,97.61
2018-09-08T06:05:20.804Z,94.27
2018-09-08T06:07:48.991Z,89.83
2018-09-08T06:10:17.109Z,87.73
2018-09-08T06:12:45.487Z,87.13
2018-09-08T06:15:13.574Z,87.67
2018-09-08T06:20:45.333Z,87.65
2018-09-08T06:23:14.180Z,87.67
2018-09-08T06:25:43.070Z,87.30
2018-09-08T06:28:11.519Z,87.57
2018-09-08T06:30:39.996Z,87.60
2018-09-08T06:33:08.399Z,84.58
2018-09-08T06:35:37.129Z,83.95
2018-09-08T06:38:05.821Z,85.01
2018-09-08T06:40:34.808Z,83.71
2018-09-08T06:43:03.194Z,84.20
2018-09-08T06:45:31.724Z,82.19
2018-09-08T06:48:00.113Z,81.38
2018-09-08T08:21:57.932Z,66.65
2018-09-08T08:54:55.715Z,53.40
2018-09-08T08:57:30.818Z,54.39
2018-09-08T08:59:59.681Z,54.25
2018-09-08T09:02:28.521Z,52.21
2018-09-08T09:04:56.803Z,52.76
2018-09-08T09:07:24.987Z,51.56
2018-09-08T09:09:53.467Z,49.67
2018-09-08T09:18:39.267Z,51.37
2018-09-08T09:21:18.594Z,48.64
2018-09-08T09:25:04.471Z,47.03
2018-09-08T09:27:34.471Z,50.52
2018-09-08T09:30:03.412Z,45.93
2018-09-08T09:32:32.650Z,46.69
2018-09-08T09:37:52.707Z,48.38
2018-09-08T09:40:23.080Z,46.23
2018-09-08T09:43:09.672Z,47.77
2018-09-08T09:45:38.414Z,48.01
2018-09-08T09:48:07.024Z,48.55
2018-09-08T09:50:35.342Z,45.72
2018-09-08T09:53:03.537Z,45.91
2018-09-08T09:55:31.762Z,47.18
2018-09-08T09:58:00.095Z,45.52
2018-09-08T10:00:33.636Z,44.98
2018-09-08T10:03:07.049Z,46.87
2018-09-08T10:05:36.738Z,43.37
2018-09-08T10:08:04.955Z,44.13
2018-09-08T10:10:33.270Z,44.76
2018-09-08T10:13:01.401Z,46.15
2018-09-08T10:15:31.066Z,45.16
2018-09-08T10:17:59.219Z,45.39
2018-09-08T10:20:27.365Z,44.91
2018-09-08T10:22:55.488Z,45.32
2018-09-08T10:25:23.571Z,45.42
2018-09-08T10:27:51.683Z,44.62
2018-09-08T10:30:19.817Z,42.14
2018-09-08T10:32:48.163Z,44.62
2018-09-08T10:35:16.282Z,44.11
2018-09-08T10:37:44.373Z,43.35
2018-09-08T10:40:13.240Z,43.67
2018-09-08T10:42:41.566Z,44.85
2018-09-08T10:45:09.946Z,42.66
2018-09-08T10:47:38.238Z,42.68
2018-09-08T10:50:06.635Z,45.17
2018-09-08T10:52:37.979Z,43.38
2018-09-08T10:55:06.081Z,42.76
2018-09-08T10:57:34.176Z,41.88
2018-09-08T11:00:03.075Z,42.73
2018-09-08T11:02:31.659Z,43.35
2018-09-08T11:04:59.907Z,42.20
2018-09-08T11:07:28.012Z,43.88
2018-09-08T11:09:56.138Z,41.71
2018-09-08T11:12:24.237Z,42.22
2018-09-08T11:14:52.349Z,41.51
2018-09-08T11:17:20.455Z,42.23
2018-09-08T11:19:48.604Z,43.79
2018-09-08T11:22:16.748Z,42.06
2018-09-08T11:24:44.847Z,43.28
2018-09-08T11:27:13.414Z,41.90
2018-09-08T11:29:41.619Z,41.08
2018-09-08T11:32:09.743Z,40.52
2018-09-08T11:34:38.187Z,41.25
2018-09-08T11:37:06.299Z,40.79
2018-09-08T11:39:34.402Z,40.91
2018-09-08T11:42:03.230Z,41.38
2018-09-08T11:44:31.344Z,39.66
2018-09-08T11:46:59.962Z,40.71
2018-09-08T11:49:28.061Z,39.91
2018-09-08T11:51:56.190Z,41.04
2018-09-08T11:54:24.284Z,39.89
2018-09-08T11:56:52.371Z,39.17
2018-09-08T11:59:20.488Z,38.92
2018-09-08T12:01:48.973Z,40.06
2018-09-08T12:04:17.078Z,40.16
2018-09-08T12:06:45.191Z,39.22
2018-09-08T12:09:13.327Z,38.41
2018-09-08T12:11:41.543Z,37.74
2018-09-08T12:14:10.063Z,40.95
2018-09-08T12:16:38.251Z,39.02
2018-09-08T12:19:06.461Z,38.44
2018-09-08T12:21:34.938Z,38.98
2018-09-08T12:24:03.067Z,38.25
2018-09-08T12:26:31.175Z,37.80
2018-09-08T12:28:59.290Z,37.85
2018-09-08T12:31:27.375Z,38.17
2018-09-08T12:33:55.818Z,39.68
2018-09-08T12:36:23.924Z,38.69
2018-09-08T12:38:52.113Z,36.96
2018-09-08T12:41:20.407Z,37.73
2018-09-08T12:43:48.812Z,38.11
2018-09-08T12:46:16.972Z,38.13
2018-09-08T12:48:45.161Z,37.29
2018-09-08T12:51:13.274Z,38.59
2018-09-08T12:53:41.357Z,36.56
2018-09-08T12:56:09.539Z,36.82
2018-09-08T12:58:37.667Z,38.58
2018-09-08T13:01:06.343Z,38.49
2018-09-08T13:03:34.509Z,39.03
2018-09-08T13:06:03.082Z,40.11
2018-09-08T13:08:31.171Z,37.72
2018-09-08T13:10:59.269Z,37.23
2018-09-08T13:13:27.366Z,37.22
2018-09-08T13:16:02.303Z,39.55
2018-09-08T13:18:30.403Z,37.33
2018-09-08T13:20:58.708Z,36.94
2018-09-08T13:23:26.818Z,36.45
2018-09-08T13:25:54.968Z,36.37
2018-09-08T13:28:23.015Z,36.41
2018-09-08T13:30:51.099Z,35.82
2018-09-08T13:33:19.784Z,36.43
2018-09-08T13:35:47.878Z,36.98
2018-09-08T13:38:16.040Z,38.17
2018-09-08T13:40:44.166Z,35.43
2018-09-08T13:43:12.273Z,35.37
2018-09-08T13:45:40.384Z,36.21
2018-09-08T13:48:08.488Z,36.00
2018-09-08T13:50:36.605Z,36.58
2018-09-08T13:53:04.739Z,36.93
2018-09-08T13:55:32.896Z,37.78
2018-09-08T13:58:01.008Z,37.19
2018-09-08T14:00:29.130Z,38.41
2018-09-08T14:02:57.243Z,37.90
2018-09-08T14:05:25.377Z,37.05
2018-09-08T14:07:55.560Z,36.72
2018-09-08T14:10:23.725Z,38.79
2018-09-08T14:12:51.829Z,37.89
2018-09-08T14:15:19.936Z,36.63
2018-09-08T14:17:48.039Z,35.27
2018-09-08T14:20:16.142Z,36.74
2018-09-08T14:22:44.344Z,37.01
2018-09-08T14:25:12.512Z,36.92
2018-09-08T14:27:40.602Z,38.47
2018-09-08T14:30:09.648Z,36.76
2018-09-08T14:32:37.751Z,36.38
2018-09-08T14:35:05.889Z,36.09
2018-09-08T14:37:34.085Z,37.50
2018-09-08T14:40:02.222Z,37.83
2018-09-08T14:42:30.317Z,36.01
2018-09-08T14:44:58.440Z,37.87
2018-09-08T14:47:26.603Z,36.46
2018-09-08T14:49:54.951Z,36.44
2018-09-08T14:52:23.068Z,35.83
2018-09-08T14:54:51.587Z,34.57
2018-09-08T14:57:19.719Z,35.01
2018-09-08T14:59:47.851Z,36.18
2018-09-08T15:02:15.970Z,35.74
2018-09-08T15:04:44.133Z,36.00
2018-09-08T15:07:12.184Z,35.89
2018-09-08T15:09:40.365Z,37.48
2018-09-08T15:12:08.735Z,35.42
2018-09-08T15:14:36.864Z,36.02
2018-09-08T15:17:05.563Z,36.27
2018-09-08T15:19:33.676Z,35.41
2018-09-08T15:22:01.881Z,35.84
2018-09-08T15:24:30.026Z,36.81
2018-09-08T15:26:58.111Z,38.23
2018-09-08T15:29:26.239Z,38.06
2018-09-08T15:31:54.364Z,37.49
2018-09-08T15:34:22.464Z,36.88
2018-09-08T15:36:50.559Z,35.96
2018-09-08T15:39:18.676Z,37.25
2018-09-08T15:41:46.763Z,36.25
2018-09-08T15:44:15.197Z,37.39
2018-09-08T15:46:43.299Z,37.87
2018-09-08T15:49:12.038Z,38.01
2018-09-08T15:51:40.182Z,36.66
2018-09-08T15:54:08.258Z,37.79
2018-09-08T15:56:36.386Z,36.26
2018-09-08T15:59:04.511Z,36.78
2018-09-08T16:01:32.607Z,37.00
2018-09-08T16:04:00.721Z,36.74
2018-09-08T16:06:28.851Z,37.02
2018-09-08T16:08:56.924Z,36.98
2018-09-08T16:11:25.049Z,36.40
2018-09-08T16:13:53.345Z,37.02
2018-09-08T16:16:21.473Z,37.44
2018-09-08T16:18:49.599Z,37.06
2018-09-08T16:21:17.622Z,37.38
2018-09-08T16:23:46.022Z,37.86
2018-09-08T16:26:14.542Z,37.18
2018-09-08T16:28:43.701Z,37.73
2018-09-08T16:31:11.831Z,37.75
2018-09-08T16:33:40.094Z,38.29
2018-09-08T16:36:08.200Z,38.75
2018-09-08T16:38:36.705Z,37.95
2018-09-08T16:41:04.817Z,38.14
2018-09-08T16:43:33.219Z,38.18
2018-09-08T16:46:01.406Z,37.81
2018-09-08T16:48:29.782Z,38.37
2018-09-08T16:50:58.087Z,38.95
2018-09-08T16:53:26.236Z,39.12
2018-09-08T16:55:54.357Z,39.46
2018-09-08T16:58:22.468Z,38.37
2018-09-08T17:00:51.367Z,39.13
2018-09-08T17:03:19.539Z,38.82
2018-09-08T17:05:48.392Z,38.87
2018-09-08T17:08:17.849Z,39.18
2018-09-08T17:10:47.593Z,39.21
2018-09-08T17:13:15.711Z,39.71
2018-09-08T17:15:44.451Z,39.86
2018-09-08T17:18:12.888Z,39.72
2018-09-08T17:20:41.452Z,40.23
2018-09-08T17:23:09.559Z,40.53
2018-09-08T17:25:38.405Z,40.99
2018-09-08T17:28:06.617Z,40.94
2018-09-08T17:30:34.719Z,41.10
2018-09-08T17:33:02.851Z,41.58
2018-09-08T17:35:31.232Z,41.73
2018-09-08T17:37:59.408Z,42.06
2018-09-08T17:40:27.523Z,41.97
2018-09-08T17:42:55.642Z,42.27
2018-09-08T17:45:23.747Z,42.62
2018-09-08T17:47:51.866Z,43.13
2018-09-08T17:50:19.990Z,45.02
2018-09-08T17:52:48.114Z,43.18
2018-09-08T17:55:16.202Z,43.48
2018-09-08T17:57:44.436Z,46.08
2018-09-08T18:00:13.288Z,45.01
2018-09-08T18:02:41.897Z,45.62
2018-09-08T18:05:10.354Z,46.44
2018-09-08T18:07:40.012Z,46.13
2018-09-08T18:10:08.585Z,46.09
2018-09-08T18:12:36.696Z,46.56
2018-09-08T18:15:05.419Z,47.27
2018-09-08T18:17:33.519Z,49.65
2018-09-08T18:20:01.679Z,48.03
2018-09-08T18:22:29.783Z,48.61
2018-09-08T18:24:57.955Z,48.67
2018-09-08T18:27:26.386Z,48.88
2018-09-08T18:29:54.515Z,49.62
2018-09-08T18:32:22.671Z,52.06
2018-09-08T18:34:50.758Z,50.75
2018-09-08T18:37:20.123Z,50.97
2018-09-08T18:39:48.244Z,55.07
2018-09-08T18:42:16.328Z,50.73
2018-09-08T18:44:44.566Z,53.49
2018-09-08T18:47:12.691Z,54.26
2018-09-08T18:49:40.809Z,54.12
2018-09-08T18:52:08.915Z,54.93
2018-09-08T18:54:37.021Z,54.94
2018-09-08T18:57:05.517Z,56.03
2018-09-08T18:59:33.610Z,57.53
2018-09-08T19:02:01.738Z,57.17
2018-09-08T19:04:29.827Z,57.77
2018-09-08T19:06:57.940Z,57.29
2018-09-08T19:09:26.055Z,57.84
2018-09-08T19:11:54.156Z,58.83
2018-09-08T19:14:27.831Z,60.83
2018-09-08T19:16:55.916Z,59.93
2018-09-08T19:19:24.011Z,62.01
2018-09-08T19:21:52.139Z,60.50
2018-09-08T19:24:54.983Z,59.78
2018-09-08T19:27:23.089Z,61.33
2018-09-08T19:29:52.135Z,60.95
2018-09-08T19:32:20.819Z,61.71
2018-09-08T19:34:54.350Z,61.43
2018-09-08T19:37:22.571Z,61.92
2018-09-08T19:39:50.639Z,62.97
2018-09-08T19:42:18.739Z,63.63
2018-09-08T19:44:46.812Z,59.96
2018-09-08T19:47:20.291Z,62.06
2018-09-08T19:49:48.384Z,63.47
2018-09-08T19:52:21.719Z,63.93
2018-09-08T19:54:49.817Z,65.03
2018-09-08T19:57:23.116Z,65.33
2018-09-08T19:59:51.167Z,65.33
2018-09-08T20:02:19.253Z,64.72
2018-09-08T20:04:47.610Z,65.93
2018-09-08T20:07:15.674Z,65.80
2018-09-08T20:09:44.307Z,66.05
2018-09-08T20:12:12.319Z,65.34
2018-09-08T20:14:40.541Z,66.02
2018-09-08T20:17:08.684Z,65.51
2018-09-08T20:19:37.507Z,64.70
2018-09-08T20:22:06.733Z,64.57
2018-09-08T20:24:35.362Z,64.33
2018-09-08T20:27:12.684Z,64.63
2018-09-08T20:29:42.099Z,66.09
2018-09-08T20:32:10.691Z,66.49
2018-09-08T20:34:42.554Z,67.21
2018-09-08T20:37:11.823Z,67.82
2018-09-08T20:39:40.521Z,67.42
2018-09-08T20:42:08.648Z,67.91
2018-09-08T20:44:37.404Z,68.87
2018-09-08T20:47:06.387Z,68.83
2018-09-08T20:49:34.963Z,69.31
2018-09-08T20:52:03.839Z,69.25
2018-09-08T20:54:31.959Z,68.99
2018-09-08T20:57:02.066Z,69.20
2018-09-08T20:59:30.188Z,69.66
2018-09-08T21:02:00.342Z,72.70
2018-09-08T21:04:30.619Z,72.65
2018-09-08T21:06:58.748Z,72.78
2018-09-08T21:09:26.888Z,73.40
2018-09-08T21:11:55.015Z,73.91
2018-09-08T21:14:29.068Z,74.18
2018-09-08T21:16:57.194Z,72.44
2018-09-08T21:19:26.902Z,73.07
2018-09-08T21:21:55.054Z,72.82
2018-09-08T21:24:23.598Z,72.13
2018-09-08T21:26:51.785Z,72.97
2018-09-08T21:29:19.986Z,73.44
2018-09-08T21:31:49.463Z,74.58
2018-09-08T21:34:17.608Z,74.95
2018-09-08T21:36:45.709Z,75.72
2018-09-08T21:39:13.815Z,76.53
2018-09-08T21:41:41.984Z,77.15
2018-09-08T21:44:10.367Z,77.28
2018-09-08T21:46:38.455Z,76.74
2018-09-08T21:49:06.630Z,77.44
2018-09-08T21:51:34.723Z,78.86
2018-09-08T21:54:02.914Z,77.71
2018-09-08T21:56:31.427Z,77.08
2018-09-08T21:58:59.548Z,77.80
2018-09-08T22:02:40.480Z,78.93
2018-09-08T22:07:48.276Z,79.80
2018-09-08T22:10:17.714Z,79.87
2018-09-08T22:12:46.243Z,79.97
2018-09-08T22:15:14.873Z,80.33
2018-09-08T22:17:43.432Z,79.56
2018-09-08T22:20:12.203Z,78.77
2018-09-08T22:22:40.981Z,79.53
2018-09-08T22:25:09.555Z,79.15
2018-09-08T22:27:37.973Z,79.45
2018-09-08T22:32:45.903Z,79.35
2018-09-08T22:35:14.417Z,80.07
2018-09-08T22:37:42.996Z,80.75
2018-09-08T22:40:11.635Z,81.08
2018-09-08T22:42:40.315Z,80.92
2018-09-08T22:45:08.957Z,80.82
2018-09-08T22:47:37.534Z,80.32
2018-09-08T22:50:06.376Z,79.58
2018-09-08T22:52:35.040Z,79.87
2018-09-08T22:55:03.953Z,79.16
2018-09-08T23:00:11.433Z,80.43
2018-09-08T23:02:40.300Z,80.25
2018-09-08T23:05:08.894Z,78.91
2018-09-08T23:07:37.565Z,77.73
2018-09-08T23:10:06.312Z,77.92
2018-09-08T23:12:35.036Z,77.68
2018-09-08T23:15:03.822Z,78.13
2018-09-08T23:17:32.458Z,79.00
2018-09-08T23:20:00.998Z,80.10
2018-09-08T23:22:29.732Z,80.05
2018-09-08T23:24:58.511Z,80.76
2018-09-08T23:27:27.076Z,80.39
2018-09-08T23:29:55.959Z,80.94
2018-09-08T23:32:25.207Z,81.32
2018-09-08T23:34:53.826Z,81.92
2018-09-08T23:37:22.451Z,82.23
2018-09-08T23:39:58.047Z,81.91
2018-09-08T23:42:26.985Z,81.69
2018-09-08T23:44:55.470Z,80.32
2018-09-08T23:50:13.428Z,79.33
2018-09-08T23:52:42.131Z,80.79
2018-09-08T23:55:11.002Z,81.69
2018-09-08T23:57:39.648Z,82.22
